Time;durP1;ratioP1;P1;durP2;ratioP2;P2;SDS_P1;SDS_P2;PMS_P1;PMS_P2;Temp;Humidity;BMP_temperature;BMP_pressure;BME280_temperature;BME280_humidity;BME280_pressure;Samples;Min_cycle;Max_cycle;Signal;HPM_P1;HPM_P2
2023/05/27 00:02:03;;;;;;;16.10;4.80;;;;;;;15.64;62.77;99622.20;103472;1280;98017;-77
2023/05/27 00:07:18;;;;;;;14.40;5.00;;;;;;;15.46;62.74;99625.85;103444;1280;97966;-78
2023/05/27 00:09:46;;;;;;;16.70;5.20;;;;;;;15.39;62.63;99628.25;103615;1276;98020;-76
2023/05/27 00:12:15;;;;;;;14.50;5.20;;;;;;;15.29;62.25;99631.95;103443;1279;111206;-76
2023/05/27 00:14:44;;;;;;;16.10;4.90;;;;;;;15.20;62.39;99629.65;103575;1277;98038;-77
2023/05/27 00:17:13;;;;;;;19.70;5.70;;;;;;;15.11;62.44;99628.95;103425;1281;107460;-76
2023/05/27 00:19:42;;;;;;;18.60;5.40;;;;;;;15.02;62.48;99630.37;103544;1276;97917;-75
2023/05/27 00:22:12;;;;;;;19.60;5.60;;;;;;;14.95;62.43;99629.70;103528;1280;97923;-75
2023/05/27 00:24:41;;;;;;;20.50;5.90;;;;;;;14.88;62.35;99634.23;103720;1282;111245;-75
2023/05/27 00:27:10;;;;;;;15.30;5.30;;;;;;;14.82;62.41;99632.39;103398;1282;98007;-75
2023/05/27 00:29:39;;;;;;;16.30;5.50;;;;;;;14.79;62.37;99634.05;103476;1289;107584;-76
2023/05/27 00:32:06;;;;;;;18.90;6.20;;;;;;;14.76;62.45;99627.15;103537;1276;97914;-76
2023/05/27 00:34:35;;;;;;;15.60;5.40;;;;;;;14.73;62.33;99631.51;103431;1283;98158;-75
2023/05/27 00:37:04;;;;;;;15.90;5.10;;;;;;;14.72;62.44;99630.71;103476;1277;111848;-76
2023/05/27 00:39:32;;;;;;;16.30;5.70;;;;;;;14.69;62.41;99634.27;103413;1277;98678;-75
2023/05/27 00:42:01;;;;;;;20.00;5.40;;;;;;;14.68;62.38;99635.45;103532;1289;107710;-76
2023/05/27 00:44:30;;;;;;;23.10;5.80;;;;;;;14.66;62.21;99638.64;103375;1279;97992;-76
2023/05/27 00:46:57;;;;;;;17.50;5.60;;;;;;;14.62;62.18;99639.53;103497;1279;98814;-75
2023/05/27 00:49:26;;;;;;;18.70;6.20;;;;;;;14.58;62.19;99645.16;103400;1280;111386;-75
2023/05/27 00:51:54;;;;;;;17.90;5.10;;;;;;;14.52;62.18;99647.77;103522;1279;98074;-75
2023/05/27 00:54:22;;;;;;;18.30;5.60;;;;;;;14.46;62.15;99654.50;103400;1275;107686;-76
2023/05/27 00:56:50;;;;;;;17.30;5.40;;;;;;;14.40;62.13;99654.92;103582;1281;98049;-77
2023/05/27 00:59:19;;;;;;;16.30;5.80;;;;;;;14.34;62.09;99658.64;103516;1280;98014;-76
2023/05/27 01:01:48;;;;;;;19.50;5.90;;;;;;;14.26;62.08;99660.37;103524;1279;111307;-77
2023/05/27 01:04:17;;;;;;;16.50;5.00;;;;;;;14.18;62.12;99661.65;103496;1277;99299;-76
2023/05/27 01:06:55;;;;;;;17.10;5.30;;;;;;;14.09;62.03;99666.09;103365;1280;107759;-76
2023/05/27 01:09:33;;;;;;;18.20;5.40;;;;;;;14.00;62.03;99661.80;103541;1277;97998;-76
2023/05/27 01:12:39;;;;;;;17.70;5.30;;;;;;;13.93;61.99;99660.79;103555;1282;98004;-75
2023/05/27 01:15:07;;;;;;;17.40;5.10;;;;;;;13.84;62.04;99661.13;103508;1288;112606;-77
2023/05/27 01:17:37;;;;;;;13.80;5.60;;;;;;;13.78;62.08;99660.84;103430;1287;98091;-76
2023/05/27 01:20:10;;;;;;;13.10;4.70;;;;;;;13.73;61.85;99663.36;103588;1281;107687;-77
2023/05/27 01:22:41;;;;;;;22.70;6.00;;;;;;;13.64;61.86;99666.36;103514;1277;98094;-75
2023/05/27 01:25:10;;;;;;;19.70;7.00;;;;;;;13.58;61.93;99668.79;103590;1286;97982;-76
2023/05/27 01:27:40;;;;;;;18.70;5.30;;;;;;;13.55;61.97;99666.63;103415;1286;111349;-76
2023/05/27 01:30:08;;;;;;;19.00;4.80;;;;;;;13.52;61.92;99665.64;103629;1276;97920;-76
2023/05/27 01:33:20;;;;;;;15.10;5.10;;;;;;;13.47;61.87;99666.92;103433;1276;107949;-76
2023/05/27 01:35:54;;;;;;;19.00;5.00;;;;;;;13.41;61.85;99669.96;103348;1279;98429;-76
2023/05/27 01:38:25;;;;;;;16.80;5.30;;;;;;;13.38;61.89;99669.81;103429;1290;97991;-75
2023/05/27 01:40:54;;;;;;;18.40;5.20;;;;;;;13.36;61.84;99668.94;103542;1279;111111;-76
2023/05/27 01:43:22;;;;;;;22.00;6.10;;;;;;;13.35;61.93;99668.29;103386;1290;97966;-75
2023/05/27 01:45:51;;;;;;;19.50;6.10;;;;;;;13.36;61.90;99669.83;103491;1286;107733;-77
2023/05/27 01:48:20;;;;;;;16.70;5.40;;;;;;;13.35;61.97;99673.61;103492;1276;98078;-76
2023/05/27 01:50:48;;;;;;;17.30;5.40;;;;;;;13.37;61.97;99673.16;103589;1279;99323;-76
2023/05/27 01:53:15;;;;;;;18.90;4.90;;;;;;;13.37;61.97;99672.96;103340;1280;111306;-76
2023/05/27 01:55:43;;;;;;;16.80;5.20;;;;;;;13.36;61.98;99678.66;103345;1290;97978;-75
2023/05/27 01:58:11;;;;;;;17.90;5.00;;;;;;;13.36;61.90;99678.52;103316;1276;169820;-76
2023/05/27 02:00:39;;;;;;;13.90;5.10;;;;;;;13.35;61.89;99680.91;103440;1280;98093;-77
2023/05/27 02:03:08;;;;;;;16.90;5.90;;;;;;;13.35;61.97;99680.58;103735;1280;98801;-76
2023/05/27 02:05:36;;;;;;;16.50;4.90;;;;;;;13.33;61.94;99683.05;103910;1280;111021;-76
2023/05/27 02:08:04;;;;;;;19.10;5.50;;;;;;;13.35;61.95;99685.92;104493;1282;99205;-77
2023/05/27 02:10:32;;;;;;;18.80;5.50;;;;;;;13.34;62.03;99685.63;104407;1283;107389;-76
2023/05/27 02:13:00;;;;;;;19.40;5.30;;;;;;;13.34;61.80;99685.28;104622;1276;98109;-77
2023/05/27 02:15:28;;;;;;;17.20;5.10;;;;;;;13.31;61.81;99685.30;104375;1276;97807;-76
2023/05/27 02:17:56;;;;;;;16.60;5.40;;;;;;;13.31;61.79;99683.23;104327;1276;111323;-76
2023/05/27 02:20:25;;;;;;;20.60;6.10;;;;;;;13.28;61.71;99685.94;104459;1276;97978;-77
2023/05/27 02:22:52;;;;;;;16.90;5.80;;;;;;;13.25;61.79;99688.77;105419;1276;106775;-76
2023/05/27 02:25:20;;;;;;;16.40;5.20;;;;;;;13.22;61.68;99694.02;104215;1276;97979;-75
2023/05/27 02:27:48;;;;;;;16.20;4.50;;;;;;;13.18;61.69;99696.11;103384;1279;98000;-76
2023/05/27 02:30:17;;;;;;;15.50;4.60;;;;;;;13.13;61.63;99696.65;103424;1279;112493;-75
2023/05/27 02:32:45;;;;;;;20.30;5.50;;;;;;;13.10;61.74;99694.34;103374;1279;97976;-76
2023/05/27 02:35:17;;;;;;;15.50;4.70;;;;;;;13.06;61.48;99695.52;103327;1290;107815;-75
2023/05/27 02:37:44;;;;;;;16.90;4.50;;;;;;;13.03;61.64;99695.42;103443;1279;98940;-76
2023/05/27 02:40:24;;;;;;;17.90;4.90;;;;;;;13.02;61.52;99702.95;103464;1285;97987;-76
2023/05/27 02:42:52;;;;;;;15.70;4.70;;;;;;;12.99;61.51;99702.05;103465;1276;110405;-78
2023/05/27 02:45:20;;;;;;;14.00;4.90;;;;;;;13.00;61.46;99700.23;103657;1276;98664;-78
2023/05/27 02:47:48;;;;;;;19.70;4.90;;;;;;;13.01;61.40;99702.48;103611;1288;107721;-76
2023/05/27 02:50:16;;;;;;;17.10;4.50;;;;;;;12.98;61.24;99706.05;103517;1279;98916;-75
2023/05/27 02:52:43;;;;;;;11.90;4.00;;;;;;;12.96;61.27;99710.48;103656;1276;97920;-75
2023/05/27 02:55:12;;;;;;;12.80;3.90;;;;;;;12.94;61.24;99714.90;103579;1276;111337;-75
2023/05/27 02:57:40;;;;;;;14.30;4.20;;;;;;;12.92;61.11;99720.91;103599;1280;98407;-77
2023/05/27 03:00:09;;;;;;;16.20;4.60;;;;;;;12.90;61.29;99721.75;103621;1280;106727;-76
2023/05/27 03:02:37;;;;;;;13.90;4.30;;;;;;;12.90;61.20;99728.36;103567;1277;98004;-76
2023/05/27 03:05:05;;;;;;;16.50;4.60;;;;;;;12.93;61.19;99728.52;103662;1280;97997;-76
2023/05/27 03:07:33;;;;;;;17.80;4.70;;;;;;;12.93;61.09;99732.73;103467;1289;112378;-76
2023/05/27 03:10:00;;;;;;;14.90;4.50;;;;;;;12.90;61.09;99730.10;103460;1280;98880;-76
2023/05/27 03:12:28;;;;;;;14.10;3.90;;;;;;;12.88;60.83;99734.35;103418;1279;107392;-76
2023/05/27 03:14:56;;;;;;;15.70;4.70;;;;;;;12.85;60.63;99739.24;103450;1281;97988;-76
2023/05/27 03:17:24;;;;;;;20.90;5.30;;;;;;;12.81;60.79;99737.55;103526;1280;97973;-76
2023/05/27 03:19:52;;;;;;;17.10;4.80;;;;;;;12.81;60.89;99738.41;103404;1280;111293;-76
2023/05/27 03:22:20;;;;;;;16.60;4.90;;;;;;;12.81;60.88;99741.80;103391;1279;97998;-78
2023/05/27 03:24:47;;;;;;;16.30;4.70;;;;;;;12.85;61.03;99749.58;103419;1290;108857;-76
2023/05/27 03:27:15;;;;;;;19.60;5.20;;;;;;;12.82;60.69;99747.98;103476;1281;98063;-76
2023/05/27 03:29:43;;;;;;;19.10;4.90;;;;;;;12.74;60.57;99752.29;103584;1275;98007;-76
2023/05/27 03:32:11;;;;;;;16.30;4.50;;;;;;;12.66;60.68;99754.22;103510;1279;111119;-76
2023/05/27 03:34:39;;;;;;;20.10;5.30;;;;;;;12.63;60.57;99752.70;103509;1280;99037;-76
2023/05/27 03:37:06;;;;;;;21.20;5.70;;;;;;;12.63;60.70;99753.34;103301;1276;105922;-76
2023/05/27 03:39:34;;;;;;;19.00;4.60;;;;;;;12.70;60.79;99758.45;103336;1282;99212;-76
2023/05/27 03:42:02;;;;;;;19.60;4.60;;;;;;;12.75;60.76;99760.71;103456;1289;99376;-76
2023/05/27 03:44:30;;;;;;;21.30;5.20;;;;;;;12.75;60.58;99764.50;103383;1290;111311;-77
2023/05/27 03:46:58;;;;;;;20.50;4.60;;;;;;;12.71;60.52;99770.26;103408;1276;99208;-76
2023/05/27 03:49:26;;;;;;;17.00;4.40;;;;;;;12.72;60.58;99776.04;103359;1280;107482;-76
2023/05/27 03:51:53;;;;;;;15.90;4.90;;;;;;;12.73;60.43;99775.98;103374;1280;97965;-76
2023/05/27 03:54:21;;;;;;;17.90;4.30;;;;;;;12.78;60.64;99776.55;103396;1282;98008;-76
2023/05/27 03:56:49;;;;;;;17.30;4.70;;;;;;;12.83;60.42;99776.39;103352;1280;110999;-76
2023/05/27 03:59:17;;;;;;;15.20;4.50;;;;;;;12.82;60.42;99782.66;103371;1277;99219;-76
2023/05/27 04:01:46;;;;;;;16.20;4.40;;;;;;;12.86;60.54;99783.09;103390;1279;108942;-77
2023/05/27 04:04:14;;;;;;;16.70;4.60;;;;;;;12.91;60.54;99783.09;103404;1279;99209;-76
2023/05/27 04:06:42;;;;;;;24.70;5.60;;;;;;;12.94;60.50;99784.83;103418;1279;98121;-76
2023/05/27 04:09:10;;;;;;;17.80;4.70;;;;;;;13.02;60.57;99782.02;103392;1279;112485;-77
2023/05/27 04:11:37;;;;;;;17.00;4.70;;;;;;;13.10;60.36;99787.96;103370;1276;97985;-76
2023/05/27 04:14:06;;;;;;;18.40;4.80;;;;;;;13.11;60.35;99784.70;103355;1280;107714;-77
2023/05/27 04:16:35;;;;;;;17.40;4.60;;;;;;;13.12;60.30;99787.71;103560;1279;98058;-76
2023/05/27 04:19:02;;;;;;;18.60;4.50;;;;;;;13.14;60.38;99785.03;103394;1276;98000;-76
2023/05/27 04:21:31;;;;;;;19.20;4.80;;;;;;;13.19;60.34;99791.64;103557;1280;111318;-77
2023/05/27 04:23:59;;;;;;;16.70;5.10;;;;;;;13.22;60.11;99792.14;103475;1279;98052;-76
2023/05/27 04:26:26;;;;;;;24.70;5.60;;;;;;;13.25;60.14;99790.66;103483;1286;107847;-76
2023/05/27 04:28:59;;;;;;;15.10;3.90;;;;;;;13.24;60.10;99791.29;103315;1279;98039;-75
2023/05/27 04:31:28;;;;;;;22.00;5.00;;;;;;;13.24;60.17;99789.33;103439;1280;99210;-76
2023/05/27 04:33:56;;;;;;;29.90;5.10;;;;;;;13.34;60.27;99790.39;103389;1275;111584;-76
2023/05/27 04:36:27;;;;;;;16.60;4.70;;;;;;;13.42;60.26;99791.41;103387;1279;99316;-77
2023/05/27 04:38:54;;;;;;;17.10;3.90;;;;;;;13.50;60.18;99794.98;103388;1279;107322;-76
2023/05/27 04:41:27;;;;;;;16.30;4.80;;;;;;;13.52;60.06;99802.27;103421;1280;97978;-76
2023/05/27 04:43:56;;;;;;;12.80;4.10;;;;;;;13.54;60.04;99802.64;103599;1276;98036;-76
2023/05/27 04:46:24;;;;;;;17.30;4.50;;;;;;;13.56;60.09;99805.41;103435;1277;110427;-76
2023/05/27 04:48:53;;;;;;;19.70;4.80;;;;;;;13.59;60.01;99801.98;103484;1277;98018;-77
2023/05/27 04:51:22;;;;;;;22.20;5.40;;;;;;;13.54;59.81;99805.87;103486;1280;106515;-76
2023/05/27 04:53:50;;;;;;;19.50;5.20;;;;;;;13.53;60.00;99803.77;103401;1279;98026;-76
2023/05/27 04:56:19;;;;;;;23.60;4.90;;;;;;;13.60;59.99;99810.07;103468;1277;98071;-75
2023/05/27 04:58:48;;;;;;;18.50;4.40;;;;;;;13.63;59.84;99810.27;103411;1280;111295;-76
2023/05/27 05:01:21;;;;;;;17.80;5.30;;;;;;;13.68;59.98;99808.77;103468;1277;98253;-76
2023/05/27 05:03:52;;;;;;;22.50;5.70;;;;;;;13.74;59.92;99809.94;103785;1277;107707;-76
2023/05/27 05:06:22;;;;;;;19.60;4.60;;;;;;;13.75;59.59;99813.95;104300;1275;98007;-76
2023/05/27 05:08:51;;;;;;;20.50;4.40;;;;;;;13.72;59.54;99814.20;104897;1279;98010;-75
2023/05/27 05:11:19;;;;;;;18.90;4.80;;;;;;;13.75;59.54;99817.73;103437;1276;110970;-75
2023/05/27 05:13:47;;;;;;;18.50;5.20;;;;;;;13.85;59.62;99819.11;103514;1280;97969;-76
2023/05/27 05:16:14;;;;;;;16.10;4.40;;;;;;;13.98;59.83;99819.27;103492;1276;107732;-76
2023/05/27 05:18:42;;;;;;;17.40;4.30;;;;;;;14.10;59.68;99823.14;103361;1280;97987;-76
2023/05/27 05:21:10;;;;;;;19.20;4.70;;;;;;;14.09;59.49;99823.05;103384;1279;99225;-76
2023/05/27 05:23:39;;;;;;;21.70;4.70;;;;;;;14.12;59.61;99817.85;103454;1277;110511;-76
2023/05/27 05:26:07;;;;;;;20.30;5.00;;;;;;;14.13;59.52;99814.70;103546;1277;99328;-76
2023/05/27 05:28:35;;;;;;;17.10;4.10;;;;;;;14.17;59.35;99816.73;103437;1292;107720;-77
2023/05/27 05:31:03;;;;;;;19.50;4.50;;;;;;;14.22;59.19;99814.61;103298;1276;97906;-76
2023/05/27 05:33:31;;;;;;;18.70;4.20;;;;;;;14.31;59.13;99812.17;103491;1277;97992;-77
2023/05/27 05:35:59;;;;;;;16.40;3.90;;;;;;;14.38;58.93;99804.83;103380;1279;112022;-76
2023/05/27 05:38:27;;;;;;;17.10;3.90;;;;;;;14.43;59.11;99800.33;103923;1277;98245;-77
2023/05/27 05:40:55;;;;;;;15.70;4.00;;;;;;;14.54;59.22;99796.48;104506;1280;107643;-77
2023/05/27 05:43:23;;;;;;;18.60;4.20;;;;;;;14.65;58.76;99799.36;104197;1274;98087;-76
2023/05/27 05:45:51;;;;;;;18.70;4.60;;;;;;;14.63;58.76;99797.88;106739;1274;95828;-78
2023/05/27 05:48:19;;;;;;;12.60;3.40;;;;;;;14.70;59.00;99795.77;106148;1276;111921;-76
2023/05/27 05:50:47;;;;;;;18.50;4.20;;;;;;;14.83;59.13;99799.80;106921;1276;95837;-78
2023/05/27 05:53:16;;;;;;;13.50;3.50;;;;;;;14.93;58.85;99803.61;106916;1276;107589;-77
2023/05/27 05:55:43;;;;;;;17.90;4.10;;;;;;;14.97;58.89;99803.34;106953;1276;95949;-77
2023/05/27 05:58:11;;;;;;;15.00;4.50;;;;;;;15.09;58.42;99805.77;104293;1276;97998;-76
2023/05/27 06:00:39;;;;;;;15.20;3.80;;;;;;;15.14;58.54;99807.31;104481;1279;111346;-75
2023/05/27 06:03:07;;;;;;;16.70;4.30;;;;;;;15.16;58.40;99806.77;103456;1279;99431;-76
2023/05/27 06:05:35;;;;;;;15.80;4.00;;;;;;;15.21;58.29;99808.96;103545;1276;107679;-75
2023/05/27 06:08:03;;;;;;;18.30;4.20;;;;;;;15.19;58.63;99810.89;105764;1276;97896;-76
2023/05/27 06:10:31;;;;;;;13.90;3.90;;;;;;;15.26;58.70;99809.80;104026;1276;98106;-76
2023/05/27 06:12:59;;;;;;;17.50;4.20;;;;;;;15.25;58.77;99812.18;103936;1279;113265;-76
2023/05/27 06:15:27;;;;;;;17.30;4.10;;;;;;;15.18;58.40;99809.90;103839;1279;98007;-76
2023/05/27 06:17:54;;;;;;;16.30;4.10;;;;;;;15.02;58.12;99812.77;103859;1279;107687;-76
2023/05/27 06:20:23;;;;;;;19.80;5.00;;;;;;;14.95;58.29;99813.97;103741;1279;98271;-77
2023/05/27 06:22:51;;;;;;;14.50;4.30;;;;;;;14.89;58.10;99816.81;105310;1276;97912;-76
2023/05/27 06:25:20;;;;;;;18.60;4.30;;;;;;;14.73;57.71;99819.95;104665;1277;111135;-77
2023/05/27 06:27:48;;;;;;;18.70;4.20;;;;;;;14.61;57.93;99823.73;105821;1276;99304;-76
2023/05/27 06:30:16;;;;;;;14.30;3.80;;;;;;;14.58;58.02;99826.30;105341;1276;107699;-76
2023/05/27 06:32:43;;;;;;;15.10;3.70;;;;;;;14.59;58.01;99826.75;103662;1277;98908;-77
2023/05/27 06:35:11;;;;;;;15.00;4.00;;;;;;;14.60;58.01;99833.13;103568;1277;98074;-78
2023/05/27 06:37:40;;;;;;;20.60;4.50;;;;;;;14.60;57.86;99834.73;103539;1276;111356;-76
2023/05/27 06:40:08;;;;;;;17.40;3.80;;;;;;;14.56;57.74;99842.64;103538;1277;98013;-76
2023/05/27 06:42:37;;;;;;;20.90;4.40;;;;;;;14.52;57.50;99845.45;103443;1276;107676;-77
2023/05/27 06:45:05;;;;;;;14.80;4.10;;;;;;;14.46;57.82;99842.94;103674;1276;97956;-77
2023/05/27 06:47:33;;;;;;;18.90;4.30;;;;;;;14.51;57.90;99839.49;103649;1277;97946;-76
2023/05/27 06:50:01;;;;;;;13.90;4.00;;;;;;;14.58;57.99;99836.84;103554;1277;110808;-76
2023/05/27 06:52:29;;;;;;;15.80;4.40;;;;;;;14.62;57.82;99835.68;103667;1277;98091;-75
2023/05/27 06:54:57;;;;;;;13.00;4.30;;;;;;;14.60;57.66;99833.45;103595;1279;108811;-77
2023/05/27 06:57:24;;;;;;;14.10;4.10;;;;;;;14.61;57.72;99829.33;103787;1280;97987;-76
2023/05/27 06:59:52;;;;;;;18.20;4.50;;;;;;;14.65;57.69;99832.17;103607;1276;98916;-76
2023/05/27 07:02:20;;;;;;;15.80;3.80;;;;;;;14.68;57.57;99827.86;103374;1280;111161;-76
2023/05/27 07:04:48;;;;;;;18.50;4.10;;;;;;;14.70;57.71;99823.63;103399;1276;99416;-77
2023/05/27 07:07:16;;;;;;;16.80;4.40;;;;;;;14.77;57.71;99827.77;103451;1276;106848;-76
2023/05/27 07:09:44;;;;;;;17.40;4.10;;;;;;;14.83;57.37;99833.70;103460;1276;98074;-76
2023/05/27 07:12:12;;;;;;;17.10;4.00;;;;;;;14.88;57.57;99834.20;103567;1277;99356;-76
2023/05/27 07:14:40;;;;;;;20.90;5.10;;;;;;;14.93;57.68;99837.77;103636;1279;111151;-77
2023/05/27 07:17:07;;;;;;;18.50;4.50;;;;;;;15.00;57.65;99834.86;103511;1276;99308;-76
2023/05/27 07:19:35;;;;;;;16.40;4.20;;;;;;;15.04;57.45;99833.45;103419;1280;107680;-76
2023/05/27 07:22:03;;;;;;;19.50;4.10;;;;;;;15.02;57.51;99833.44;103460;1289;98077;-76
2023/05/27 07:24:31;;;;;;;18.50;4.80;;;;;;;15.06;57.48;99838.73;103326;1280;98064;-77
2023/05/27 07:27:00;;;;;;;17.50;4.40;;;;;;;15.06;57.34;99837.06;103347;1276;111368;-76
2023/05/27 07:29:28;;;;;;;14.60;3.70;;;;;;;15.11;57.47;99835.27;103560;1280;99199;-76
2023/05/27 07:31:56;;;;;;;15.00;4.50;;;;;;;15.15;57.31;99830.96;103533;1279;107706;-76
2023/05/27 07:34:24;;;;;;;16.00;3.90;;;;;;;15.17;57.45;99829.58;104067;1277;98055;-76
2023/05/27 07:36:52;;;;;;;18.00;4.40;;;;;;;15.17;57.21;99832.08;103655;1278;98027;-78
2023/05/27 07:39:20;;;;;;;16.20;4.10;;;;;;;15.17;57.35;99827.84;103757;1276;110977;-78
2023/05/27 07:41:48;;;;;;;24.50;5.80;;;;;;;15.22;57.02;99833.89;105147;1277;97930;-78
2023/05/27 07:44:16;;;;;;;15.90;4.50;;;;;;;15.22;57.22;99835.30;104144;1275;106725;-76
2023/05/27 07:46:43;;;;;;;14.20;3.90;;;;;;;15.27;57.14;99835.77;103520;1280;97976;-76
2023/05/27 07:49:14;;;;;;;20.70;4.70;;;;;;;15.26;56.90;99832.66;103551;1277;98465;-75
2023/05/27 07:51:42;;;;;;;15.50;3.70;;;;;;;15.28;57.16;99831.06;103563;1279;110778;-75
2023/05/27 07:54:10;;;;;;;17.20;4.60;;;;;;;15.34;56.97;99830.41;103573;1277;98010;-76
2023/05/27 07:56:38;;;;;;;14.10;4.30;;;;;;;15.42;57.15;99826.70;104204;1276;107218;-76
2023/05/27 07:59:05;;;;;;;17.70;4.70;;;;;;;15.48;56.66;99828.02;104099;1276;98909;-76
2023/05/27 08:01:33;;;;;;;12.90;3.70;;;;;;;15.48;55.89;99832.29;103891;1279;98468;-77
2023/05/27 08:04:02;;;;;;;15.20;3.40;;;;;;;15.45;56.53;99829.19;103653;1277;111426;-75
2023/05/27 08:06:50;;;;;;;15.80;3.90;;;;;;;15.43;55.95;99826.27;103674;1276;97966;-76
2023/05/27 08:09:17;;;;;;;15.00;3.80;;;;;;;15.40;56.12;99827.04;103474;1276;106697;-76
2023/05/27 08:11:45;;;;;;;15.00;4.20;;;;;;;15.43;56.13;99825.05;104257;1275;97950;-77
2023/05/27 08:14:15;;;;;;;14.70;3.90;;;;;;;15.45;56.10;99826.09;106982;1276;95698;-77
2023/05/27 08:16:43;;;;;;;11.30;3.50;;;;;;;15.47;55.82;99823.25;104085;1279;111420;-76
2023/05/27 08:19:12;;;;;;;16.40;4.70;;;;;;;15.54;56.19;99827.58;104450;1275;98086;-76
2023/05/27 08:21:40;;;;;;;15.10;3.80;;;;;;;15.60;55.99;99828.81;106968;1276;107691;-76
2023/05/27 08:24:08;;;;;;;18.00;4.00;;;;;;;15.70;56.15;99825.32;106099;1276;97908;-76
2023/05/27 08:26:36;;;;;;;15.10;4.30;;;;;;;15.84;56.34;99828.14;103815;1279;96303;-75
2023/05/27 08:29:05;;;;;;;11.90;4.30;;;;;;;15.90;56.05;99827.35;103407;1279;111305;-76
2023/05/27 08:31:33;;;;;;;20.20;4.70;;;;;;;15.93;55.88;99831.23;103477;1280;97985;-77
2023/05/27 08:34:01;;;;;;;15.60;4.00;;;;;;;16.04;55.62;99832.58;103479;1279;107746;-76
2023/05/27 08:36:29;;;;;;;11.30;3.70;;;;;;;16.19;56.00;99825.68;103472;1279;97982;-77
2023/05/27 08:38:57;;;;;;;12.70;4.10;;;;;;;16.34;56.27;99826.54;103446;1279;97969;-79
2023/05/27 08:41:32;;;;;;;11.40;3.50;;;;;;;16.44;55.98;99825.70;103528;1280;111224;-78
2023/05/27 08:44:00;;;;;;;16.50;4.00;;;;;;;16.49;55.55;99827.94;103698;1275;97988;-79
2023/05/27 08:46:49;;;;;;;14.40;3.50;;;;;;;16.57;55.85;99825.64;103549;1277;107739;-77
2023/05/27 08:49:17;;;;;;;17.70;4.20;;;;;;;16.70;55.20;99819.58;103501;1279;98051;-78
2023/05/27 08:51:46;;;;;;;17.40;4.50;;;;;;;16.82;55.30;99822.84;103683;1279;97933;-78
2023/05/27 08:54:14;;;;;;;16.30;4.00;;;;;;;16.90;55.54;99820.67;103414;1277;111177;-78
2023/05/27 08:56:44;;;;;;;18.10;5.00;;;;;;;16.89;54.98;99821.83;103465;1279;98007;-78
2023/05/27 08:59:12;;;;;;;13.00;4.10;;;;;;;16.83;54.85;99818.41;103509;1279;109712;-77
2023/05/27 09:01:41;;;;;;;17.10;4.10;;;;;;;16.80;54.72;99814.52;103434;1280;98053;-77
2023/05/27 09:04:08;;;;;;;14.30;4.20;;;;;;;16.82;54.88;99817.41;103391;1279;97976;-76
2023/05/27 09:06:37;;;;;;;11.60;3.30;;;;;;;16.79;54.68;99811.40;103406;1280;111316;-77
2023/05/27 09:09:08;;;;;;;16.10;3.90;;;;;;;16.76;54.27;99815.45;103409;1277;99311;-78
2023/05/27 09:11:39;;;;;;;14.30;3.80;;;;;;;16.70;53.55;99815.30;103534;1275;106390;-77
2023/05/27 09:14:08;;;;;;;14.40;3.50;;;;;;;16.69;54.03;99813.39;103462;1279;99212;-76
2023/05/27 09:16:42;;;;;;;13.20;4.40;;;;;;;16.72;54.01;99809.72;103572;1279;97985;-79
2023/05/27 09:19:31;;;;;;;13.10;4.00;;;;;;;16.77;53.94;99806.41;103571;1277;110951;-77
2023/05/27 09:21:59;;;;;;;12.00;3.60;;;;;;;16.85;53.90;99805.73;103599;1280;97989;-77
2023/05/27 09:24:28;;;;;;;14.30;4.20;;;;;;;16.89;53.96;99803.80;103613;1280;107734;-77
2023/05/27 09:26:55;;;;;;;12.50;3.70;;;;;;;16.92;53.52;99803.90;103675;1278;97976;-77
2023/05/27 09:29:25;;;;;;;11.10;3.70;;;;;;;16.93;53.40;99798.94;103667;1280;98005;-77
2023/05/27 09:31:57;;;;;;;17.00;3.90;;;;;;;16.94;53.22;99802.80;103836;1280;111352;-77
2023/05/27 09:34:29;;;;;;;15.40;4.50;;;;;;;16.99;53.22;99800.63;103489;1280;98001;-77
2023/05/27 09:36:58;;;;;;;16.30;3.70;;;;;;;17.00;53.16;99799.13;103693;1279;107703;-77
2023/05/27 09:39:26;;;;;;;14.20;3.70;;;;;;;17.00;52.94;99801.23;103750;1276;98081;-78
2023/05/27 09:41:58;;;;;;;15.00;4.10;;;;;;;16.99;52.82;99795.98;103545;1281;98016;-77
2023/05/27 09:44:42;;;;;;;12.10;3.90;;;;;;;17.00;53.13;99800.14;103546;1279;110719;-79
2023/05/27 09:47:11;;;;;;;12.40;3.60;;;;;;;17.02;53.06;99802.14;103586;1276;98311;-78
2023/05/27 09:49:57;;;;;;;13.80;3.90;;;;;;;16.99;52.50;99801.19;103519;1276;108990;-78
2023/05/27 09:52:25;;;;;;;17.90;4.10;;;;;;;16.95;52.52;99803.98;103546;1279;97962;-78
2023/05/27 09:54:55;;;;;;;9.70;3.10;;;;;;;17.00;52.65;99800.54;103519;1277;97987;-78
2023/05/27 09:57:26;;;;;;;10.30;3.50;;;;;;;17.05;52.15;99799.86;103559;1279;111141;-78
2023/05/27 09:59:55;;;;;;;12.70;3.40;;;;;;;17.08;52.64;99801.61;103490;1277;99252;-78
2023/05/27 10:02:23;;;;;;;12.30;3.70;;;;;;;17.11;52.02;99806.54;103600;1279;107734;-78
2023/05/27 10:04:52;;;;;;;13.90;4.00;;;;;;;17.09;52.39;99796.29;103574;1279;99327;-78
2023/05/27 10:07:22;;;;;;;10.60;3.30;;;;;;;17.10;52.51;99790.27;103532;1279;98134;-81
2023/05/27 10:10:01;;;;;;;15.00;3.80;;;;;;;17.11;52.04;99791.44;103513;1279;111308;-79
2023/05/27 10:12:28;;;;;;;13.90;3.80;;;;;;;17.12;51.36;99793.77;103820;1279;98942;-79
2023/05/27 10:14:56;;;;;;;13.80;3.80;;;;;;;17.08;51.50;99793.52;103587;1280;107995;-79
2023/05/27 10:17:24;;;;;;;13.90;3.60;;;;;;;17.08;51.80;99789.23;103555;1279;97988;-80
2023/05/27 10:19:57;;;;;;;17.60;3.90;;;;;;;17.10;51.75;99789.20;103435;1279;98090;-80
2023/05/27 10:22:25;;;;;;;18.30;3.90;;;;;;;17.09;50.80;99788.20;103492;1279;111335;-80
2023/05/27 10:24:53;;;;;;;13.60;3.80;;;;;;;17.08;51.18;99785.30;103462;1279;98075;-78
2023/05/27 10:27:21;;;;;;;12.40;3.90;;;;;;;17.13;51.12;99782.16;103514;1274;108190;-78
2023/05/27 10:29:58;;;;;;;17.10;4.50;;;;;;;17.18;51.06;99787.15;104252;1277;98047;-84
2023/05/27 10:32:27;;;;;;;14.30;3.90;;;;;;;17.22;50.85;99786.52;103785;1280;98501;-83
2023/05/27 10:34:58;;;;;;;15.20;4.10;;;;;;;17.26;51.21;99780.63;104333;1279;111325;-81
2023/05/27 10:37:33;;;;;;;10.70;3.40;;;;;;;17.28;51.17;99782.99;103648;1277;98890;-81
2023/05/27 10:40:06;;;;;;;14.20;4.00;;;;;;;17.30;51.18;99781.27;103534;1279;107534;-82
2023/05/27 10:42:34;;;;;;;14.80;3.90;;;;;;;17.30;50.62;99782.85;103866;1278;98011;-84
2023/05/27 10:45:05;;;;;;;11.00;3.80;;;;;;;17.32;50.62;99781.59;103568;1276;99204;-79
2023/05/27 10:47:36;;;;;;;14.10;4.20;;;;;;;17.34;50.22;99778.01;103830;1279;111996;-79
2023/05/27 10:50:15;;;;;;;8.70;3.30;;;;;;;17.37;50.54;99779.55;103521;1277;97963;-81
2023/05/27 10:52:43;;;;;;;12.10;4.00;;;;;;;17.41;50.98;99775.94;104467;1277;107779;-80
2023/05/27 10:55:11;;;;;;;11.60;3.50;;;;;;;17.46;50.40;99780.85;104000;1277;97969;-79
2023/05/27 10:57:42;;;;;;;13.90;3.60;;;;;;;17.49;50.51;99778.79;103827;1279;99313;-80
2023/05/27 11:00:16;;;;;;;15.20;3.80;;;;;;;17.48;50.64;99779.08;104543;1279;112000;-83
2023/05/27 11:02:45;;;;;;;15.90;3.90;;;;;;;17.48;50.52;99773.66;104513;1279;98802;-82
